logo
Search for airport 
image banner adimage banner adimage banner ad
image banner ad

EDRIS - Riesa Canitz

Located in , Germany

ICAO - ED0007, IATA -

Data provided by Airmate  

General information

Coordinates: N51°18'11" E13°13'40"
Elevation is 404 feet MSL.
 
View others Airports in Saxony

Operational data

Special qualification required
Current time UTC:
Current local time:
Weather at : EDDC - Dresden ( 42 km )
METAR: EDDC 280120Z AUTO 24004KT 220V280 CAVOK 15/14 Q1014
View NOTAMs / SUP AIP / TFR affecting this airport [VIEW]
Communications frequencies: [VIEW]

Runways:

RWY identifierQFULength (ft)Width (ft)SurfaceLDA (ft)
0990°3445164GRASS
27270°3445164GRASS

Airport contact information

Address: Germany

Satellite view of EDRIS